Time;durP1;ratioP1;P1;durP2;ratioP2;P2;SDS_P1;SDS_P2;PMS_P1;PMS_P2;Temp;Humidity;BMP_temperature;BMP_pressure;BME280_temperature;BME280_humidity;BME280_pressure;Samples;Min_cycle;Max_cycle;Signal;HPM_P1;HPM_P2
2022/06/12 00:01:38;;;;;;;18.40;12.10;;;;;;;18.23;61.26;100967.45;110121;1257;21981;-79
2022/06/12 00:04:15;;;;;;;15.60;11.70;;;;;;;18.24;61.17;100964.20;110360;1256;21960;-79
2022/06/12 00:07:14;;;;;;;;;;;;;;;;;;;;;
2022/06/12 00:09:54;;;;;;;17.20;12.30;;;;;;;18.15;61.11;100959.99;110540;1256;23820;-78
2022/06/12 00:12:30;;;;;;;13.40;12.00;;;;;;;18.10;61.22;100962.25;110083;1256;22141;-80
2022/06/12 00:15:28;;;;;;;17.40;12.70;;;;;;;18.08;61.40;100961.82;110236;1256;23817;-79
2022/06/12 00:18:29;;;;;;;14.90;12.60;;;;;;;18.05;61.47;100960.02;110870;1250;23067;-78
2022/06/12 00:21:31;;;;;;;15.90;13.60;;;;;;;18.03;61.49;100958.45;110489;1256;22018;-78
2022/06/12 00:24:28;;;;;;;16.60;13.40;;;;;;;18.02;61.66;100956.30;109838;1260;21964;-78
2022/06/12 00:27:11;;;;;;;13.70;11.50;;;;;;;18.03;61.78;100959.23;109657;1261;22162;-78
2022/06/12 00:33:03;;;;;;;15.50;13.20;;;;;;;18.05;62.11;100955.98;109820;1260;21971;-77
2022/06/12 00:35:43;;;;;;;17.90;13.40;;;;;;;18.05;62.07;100955.24;109290;1266;21991;-78
2022/06/12 00:38:32;;;;;;;14.30;12.50;;;;;;;18.07;62.15;100949.12;108656;1267;21977;-78
2022/06/12 00:41:10;;;;;;;15.10;13.50;;;;;;;18.06;62.15;100948.73;109156;1267;21986;-78
2022/06/12 00:43:47;;;;;;;16.00;12.80;;;;;;;18.04;62.13;100949.11;108722;1270;22263;-78
2022/06/12 00:46:42;;;;;;;16.60;12.90;;;;;;;18.04;62.26;100943.23;109048;1270;23803;-78
2022/06/12 00:50:00;;;;;;;14.90;12.50;;;;;;;18.05;62.43;100943.68;108819;1273;23059;-78
2022/06/12 00:53:11;;;;;;;16.20;12.80;;;;;;;18.02;62.47;100942.20;108890;1272;22042;-78
2022/06/12 00:56:33;;;;;;;;;;;;;;;;;;;;;
2022/06/12 00:59:18;;;;;;;14.40;12.90;;;;;;;17.95;62.55;100940.09;108572;1271;22053;-79
2022/06/12 01:02:01;;;;;;;15.20;12.20;;;;;;;17.95;62.78;100941.19;108761;1267;23087;-80
2022/06/12 01:07:57;;;;;;;15.60;12.60;;;;;;;17.94;62.52;100939.44;110248;1256;21958;-79
2022/06/12 01:11:15;;;;;;;14.80;13.30;;;;;;;17.94;62.69;100935.67;111148;1256;22397;-80
2022/06/12 01:14:19;;;;;;;;;;;;;;;;;;;;;
2022/06/12 01:17:05;;;;;;;16.00;12.50;;;;;;;18.01;62.61;100928.80;110142;1256;21977;-78
2022/06/12 01:20:08;;;;;;;14.40;12.40;;;;;;;18.05;62.63;100930.40;109618;1262;22414;-78
2022/06/12 01:23:55;;;;;;;14.50;11.50;;;;;;;18.07;62.54;100930.48;109667;1262;22015;-77
2022/06/12 01:27:32;;;;;;;14.00;12.10;;;;;;;18.05;62.45;100926.16;109843;1270;22002;-80
2022/06/12 01:31:15;;;;;;;14.80;11.50;;;;;;;18.02;62.38;100925.02;109450;1273;22171;-80
2022/06/12 01:35:21;;;;;;;13.00;11.60;;;;;;;17.92;62.29;100920.55;108740;1278;21968;-81
2022/06/12 01:39:00;;;;;;;;;;;;;;;;;;;;;
2022/06/12 01:42:35;;;;;;;13.40;11.40;;;;;;;17.72;62.92;100921.65;108148;1285;23622;-79
2022/06/12 01:46:41;;;;;;;;;;;;;;;;;;;;;
2022/06/12 01:50:14;;;;;;;12.50;11.20;;;;;;;17.70;63.19;100921.60;108048;1288;23048;-80
2022/06/12 01:53:34;;;;;;;13.90;11.60;;;;;;;17.76;63.36;100919.71;108218;1285;22010;-83
2022/06/12 01:56:22;;;;;;;13.00;11.60;;;;;;;17.83;63.31;100918.10;107987;1285;23933;-80
2022/06/12 01:59:43;;;;;;;16.00;10.90;;;;;;;17.90;63.27;100918.93;107868;1285;23180;-78
2022/06/12 02:02:35;;;;;;;;;;;;;;;;;;;;;
2022/06/12 02:06:23;;;;;;;12.20;10.50;;;;;;;17.94;63.19;100915.08;108069;1276;23636;-78
2022/06/12 02:09:30;;;;;;;13.70;10.30;;;;;;;17.95;63.18;100915.16;108628;1273;23599;-78
2022/06/12 02:15:35;;;;;;;11.10;9.60;;;;;;;17.98;62.89;100911.84;108803;1270;21986;-77
2022/06/12 02:18:53;;;;;;;13.10;10.40;;;;;;;17.96;62.77;100909.20;108137;1275;304889;-78
2022/06/12 02:22:13;;;;;;;17.10;9.20;;;;;;;17.88;62.61;100906.48;108396;1275;22027;-78
2022/06/12 02:25:02;;;;;;;15.90;9.80;;;;;;;17.82;62.75;100901.04;108410;1275;23595;-79
2022/06/12 02:28:15;;;;;;;13.40;10.20;;;;;;;17.80;62.83;100896.95;108211;1279;22000;-79
2022/06/12 02:31:43;;;;;;;10.70;9.50;;;;;;;17.76;62.84;100894.59;108399;1276;23028;-77
2022/06/12 02:34:57;;;;;;;;;;;;;;;;;;;;;
2022/06/12 02:38:06;;;;;;;13.40;11.60;;;;;;;17.77;63.10;100892.74;108976;1267;21980;-78
2022/06/12 02:40:54;;;;;;;13.40;10.90;;;;;;;17.79;63.20;100887.86;108539;1270;22104;-78
2022/06/12 02:43:39;;;;;;;;;;;;;;;17.82;63.14;100892.98;108436;1276;24326;-79
2022/06/12 02:46:49;;;;;;;14.50;10.90;;;;;;;17.77;63.49;100895.45;108575;1271;21996;-79
2022/06/12 02:49:23;;;;;;;14.70;10.50;;;;;;;17.81;63.35;100898.71;108549;1270;22084;-80
2022/06/12 02:52:55;;;;;;;10.60;9.20;;;;;;;17.87;63.23;100899.89;108511;1273;22001;-77
2022/06/12 02:55:57;;;;;;;12.90;9.70;;;;;;;17.85;62.87;100897.05;108464;1273;23061;-79
2022/06/12 02:59:05;;;;;;;12.60;9.90;;;;;;;17.84;62.96;100896.55;108354;1278;22017;-78
2022/06/12 03:02:18;;;;;;;15.30;9.00;;;;;;;17.82;63.10;100894.95;108503;1270;23160;-79
2022/06/12 03:05:24;;;;;;;10.10;8.70;;;;;;;17.79;62.89;100892.84;108882;1270;23081;-78
2022/06/12 03:08:16;;;;;;;11.60;8.70;;;;;;;17.79;62.83;100896.59;108818;1269;23020;-78
2022/06/12 03:11:37;;;;;;;14.20;9.40;;;;;;;17.83;62.86;100898.23;108893;1270;21983;-78
2022/06/12 03:14:18;;;;;;;12.40;10.20;;;;;;;17.86;62.71;100896.10;108805;1270;23202;-74
2022/06/12 03:17:12;;;;;;;;;;;;;;;;;;;;;
2022/06/12 03:19:54;;;;;;;11.30;8.30;;;;;;;17.94;62.79;100893.57;109876;1260;23717;-78
2022/06/12 03:23:00;;;;;;;19.70;16.40;;;;;;;18.00;62.63;100895.10;109833;1260;21971;-77
2022/06/12 03:25:50;;;;;;;11.70;8.40;;;;;;;18.06;62.52;100888.61;109610;1262;21973;-77
2022/06/12 03:29:29;;;;;;;13.00;8.20;;;;;;;18.12;62.35;100886.45;109226;1267;23614;-77
2022/06/12 03:32:45;;;;;;;10.80;8.50;;;;;;;18.15;62.24;100884.52;108759;1273;22770;-77
2022/06/12 03:35:43;;;;;;;9.80;7.90;;;;;;;18.21;62.12;100880.73;108429;1276;22021;-77
2022/06/12 03:39:08;;;;;;;10.60;8.10;;;;;;;18.26;61.97;100881.14;108584;1273;24887;-77
2022/06/12 03:42:18;;;;;;;9.80;8.20;;;;;;;18.33;61.77;100883.36;108453;1276;23323;-79
2022/06/12 03:44:52;;;;;;;13.00;8.00;;;;;;;18.43;61.63;100883.32;107971;1283;23068;-78
2022/06/12 03:48:18;;;;;;;13.50;7.80;;;;;;;18.58;61.69;100880.64;108042;1282;23702;-77
2022/06/12 03:51:07;;;;;;;8.80;7.30;;;;;;;18.71;61.36;100882.33;107710;1285;22024;-78
2022/06/12 03:54:04;;;;;;;7.50;6.30;;;;;;;18.87;61.22;100886.10;107755;1285;22005;-79
2022/06/12 04:00:29;;;;;;;7.60;6.20;;;;;;;19.20;59.96;100893.25;109532;1265;21992;-78
2022/06/12 04:03:27;;;;;;;;;;;;;;;;;;;;;
2022/06/12 04:06:41;;;;;;;7.60;5.80;;;;;;;19.37;59.26;100889.08;110037;1260;23614;-78
2022/06/12 04:09:24;;;;;;;7.50;5.90;;;;;;;19.51;59.03;100889.79;109767;1261;22323;-78
2022/06/12 04:12:23;;;;;;;8.10;5.60;;;;;;;19.65;58.70;100894.06;109601;1260;23064;-78
2022/06/12 04:15:36;;;;;;;;;;;;;;;;;;;;;
2022/06/12 04:18:45;;;;;;;7.50;4.90;;;;;;;19.94;57.67;100889.50;109421;1264;22085;-78
2022/06/12 04:21:40;;;;;;;9.00;5.70;;;;;;;20.10;57.38;100888.20;109654;1263;22435;-78
2022/06/12 04:24:42;;;;;;;9.90;5.10;;;;;;;20.27;56.78;100891.29;109731;1258;21981;-78
2022/06/12 04:27:32;;;;;;;6.60;5.20;;;;;;;20.42;56.37;100893.60;110410;1255;22129;-78
2022/06/12 04:30:22;;;;;;;8.00;4.70;;;;;;;20.58;55.92;100896.66;110448;1254;22729;-77
2022/06/12 04:33:29;;;;;;;9.20;5.40;;;;;;;20.73;55.31;100898.52;110533;1255;21960;-79
2022/06/12 04:36:18;;;;;;;7.70;5.00;;;;;;;20.82;54.82;100898.14;110706;1249;23024;-78
2022/06/12 04:38:58;;;;;;;8.10;4.70;;;;;;;20.89;54.51;100897.89;110850;1250;21960;-78
2022/06/12 04:41:47;;;;;;;6.00;4.40;;;;;;;20.97;54.08;100895.16;110892;1249;21954;-77
2022/06/12 04:44:30;;;;;;;7.40;4.80;;;;;;;21.04;53.76;100892.94;110680;1249;22050;-78
2022/06/12 04:47:06;;;;;;;8.10;5.20;;;;;;;21.10;53.51;100894.67;111001;1252;21983;-79
2022/06/12 04:49:38;;;;;;;7.20;3.60;;;;;;;21.17;53.01;100899.88;110739;1252;22100;-77
2022/06/12 04:52:14;;;;;;;5.00;3.20;;;;;;;21.22;52.27;100901.27;110865;1249;21942;-77
2022/06/12 04:54:56;;;;;;;8.70;3.40;;;;;;;21.29;51.90;100896.91;110399;1255;22201;-78
2022/06/12 04:57:44;;;;;;;;;;;;;;;;;;;;;
2022/06/12 05:00:38;;;;;;;5.70;3.40;;;;;;;21.51;51.17;100904.98;109732;1261;21985;-78
2022/06/12 05:03:27;;;;;;;;;;;;;;;;;;;;;
2022/06/12 05:06:13;;;;;;;8.40;4.30;;;;;;;21.70;50.84;100898.91;109415;1264;21981;-78
2022/06/12 05:09:17;;;;;;;8.20;3.40;;;;;;;21.76;50.46;100899.77;109335;1265;21972;-77
2022/06/12 05:11:58;;;;;;;6.20;4.30;;;;;;;21.84;50.21;100903.49;109254;1264;23796;-79
2022/06/12 05:15:04;;;;;;;5.40;3.60;;;;;;;21.95;50.01;100911.95;110308;1253;21959;-78
2022/06/12 05:17:37;;;;;;;4.70;4.10;;;;;;;22.01;50.00;100921.51;110473;1253;23784;-78
2022/06/12 05:20:45;;;;;;;;;;;;;;;;;;;;;
2022/06/12 05:23:21;;;;;;;5.50;4.50;;;;;;;22.02;50.36;100919.71;110182;1258;21967;-78
2022/06/12 05:25:54;;;;;;;;;;;;;;;22.16;51.03;100919.95;110492;1258;23662;-77
2022/06/12 05:28:49;;;;;;;6.20;4.80;;;;;;;22.35;51.45;100922.62;110457;1257;22030;-78
2022/06/12 05:31:27;;;;;;;10.10;5.40;;;;;;;22.59;50.75;100918.83;110181;1258;21993;-79
2022/06/12 05:34:20;;;;;;;10.80;5.20;;;;;;;22.82;50.17;100921.20;110307;1256;22486;-78
2022/06/12 05:37:02;;;;;;;7.60;5.00;;;;;;;23.06;49.57;100926.27;109849;1260;23691;-78
2022/06/12 05:39:39;;;;;;;10.90;4.70;;;;;;;23.24;49.20;100924.08;110493;1253;23307;-77
2022/06/12 05:42:35;;;;;;;6.50;4.80;;;;;;;23.42;48.57;100920.83;110617;1254;23605;-78
2022/06/12 05:45:26;;;;;;;6.80;5.90;;;;;;;23.64;48.50;100919.34;110458;1254;23008;-79
2022/06/12 05:48:18;;;;;;;6.20;4.00;;;;;;;23.85;47.78;100920.02;110446;1255;21973;-79
2022/06/12 05:51:03;;;;;;;6.40;5.00;;;;;;;24.05;47.70;100924.73;110716;1255;21981;-79
2022/06/12 05:54:06;;;;;;;;;;;;;;;;;;;;;
2022/06/12 05:57:11;;;;;;;5.70;4.40;;;;;;;24.73;47.03;100921.44;110659;1249;21963;-80
2022/06/12 05:59:58;;;;;;;6.70;4.50;;;;;;;25.00;45.16;100919.66;110375;1257;21966;-79
2022/06/12 06:02:52;;;;;;;7.80;4.20;;;;;;;25.04;44.65;100931.22;110420;1258;23701;-78
2022/06/12 06:05:37;;;;;;;9.60;5.60;;;;;;;25.22;45.15;100931.70;109957;1257;23026;-78
2022/06/12 06:08:22;;;;;;;6.60;4.40;;;;;;;25.40;44.75;100936.30;110032;1258;21962;-79
2022/06/12 06:11:00;;;;;;;5.60;3.90;;;;;;;25.57;44.67;100928.49;110059;1258;22037;-78
2022/06/12 06:13:48;;;;;;;5.40;3.70;;;;;;;25.81;44.72;100930.23;110293;1256;22015;-78
2022/06/12 06:16:39;;;;;;;7.10;4.30;;;;;;;26.12;44.59;100927.89;110315;1256;21975;-79
2022/06/12 06:19:22;;;;;;;7.30;4.00;;;;;;;26.42;42.95;100930.71;110717;1250;23642;-78
2022/06/12 06:22:21;;;;;;;7.50;3.60;;;;;;;26.60;41.66;100935.09;110436;1256;24022;-79
2022/06/12 06:25:04;;;;;;;6.90;3.40;;;;;;;26.83;41.60;100937.77;109885;1259;22036;-78
2022/06/12 06:27:45;;;;;;;6.30;3.40;;;;;;;27.13;41.06;100935.24;108936;1268;23308;-79
2022/06/12 06:30:47;;;;;;;5.10;3.50;;;;;;;27.50;40.77;100941.48;108843;1273;22002;-79
2022/06/12 06:34:01;;;;;;;4.50;3.10;;;;;;;27.98;40.38;100940.97;108577;1271;22170;-78
2022/06/12 06:36:43;;;;;;;6.90;3.80;;;;;;;28.47;39.23;100942.23;108419;1276;22022;-78
2022/06/12 06:39:24;;;;;;;7.10;3.40;;;;;;;28.86;37.90;100943.15;108038;1276;23188;-78
2022/06/12 06:42:23;;;;;;;5.50;3.40;;;;;;;29.22;37.02;100944.10;108010;1281;21990;-78
2022/06/12 06:48:18;;;;;;;5.10;3.30;;;;;;;29.23;35.63;100937.29;108870;1266;21954;-78
2022/06/12 06:50:54;;;;;;;5.10;3.60;;;;;;;28.99;35.57;100939.87;108973;1269;22058;-77
2022/06/12 06:53:29;;;;;;;6.50;4.60;;;;;;;28.70;35.83;100937.48;109171;1266;23019;-77
2022/06/12 06:56:10;;;;;;;14.10;6.00;;;;;;;28.35;36.29;100937.20;109253;1263;21942;-79
2022/06/12 06:59:26;;;;;;;5.40;4.10;;;;;;;27.91;37.02;100940.46;109728;1263;21937;-80
2022/06/12 07:02:04;;;;;;;7.10;3.80;;;;;;;27.49;37.19;100945.39;109933;1258;21972;-78
2022/06/12 07:04:58;;;;;;;5.60;4.00;;;;;;;27.14;37.65;100946.86;110003;1261;22110;-77
2022/06/12 07:08:01;;;;;;;6.20;3.90;;;;;;;26.80;38.18;100946.27;109890;1261;22005;-77
2022/06/12 07:11:40;;;;;;;15.70;5.60;;;;;;;26.45;38.81;100944.21;110183;1261;22739;-78
2022/06/12 07:14:29;;;;;;;6.70;6.10;;;;;;;26.17;39.40;100941.69;109358;1265;22002;-77
2022/06/12 07:17:00;;;;;;;14.40;12.90;;;;;;;26.01;39.76;100945.98;109343;1261;22048;-77
2022/06/12 07:19:33;;;;;;;7.90;7.10;;;;;;;25.87;40.18;100941.08;109700;1257;23066;-78
2022/06/12 07:22:02;;;;;;;8.90;5.90;;;;;;;25.75;40.60;100940.39;109945;1260;21974;-77
2022/06/12 07:24:32;;;;;;;6.20;5.10;;;;;;;25.65;41.16;100941.48;110074;1257;23029;-77
2022/06/12 07:27:12;;;;;;;5.50;3.90;;;;;;;25.57;41.70;100942.90;109824;1258;21965;-77
2022/06/12 07:29:44;;;;;;;14.30;5.00;;;;;;;25.49;41.87;100944.38;109930;1258;23062;-77
2022/06/12 07:32:16;;;;;;;10.70;5.40;;;;;;;25.45;41.89;100948.42;109981;1258;23621;-77
2022/06/12 07:34:47;;;;;;;9.30;6.10;;;;;;;25.39;41.88;100949.11;110160;1258;21966;-77
2022/06/12 07:37:20;;;;;;;11.00;9.80;;;;;;;25.34;42.01;100947.70;109739;1262;22379;-76
2022/06/12 07:39:53;;;;;;;6.70;6.00;;;;;;;25.41;42.73;100946.88;109609;1264;21971;-76
2022/06/12 07:42:33;;;;;;;8.90;5.30;;;;;;;25.51;42.57;100942.29;109643;1262;21976;-77
2022/06/12 07:45:04;;;;;;;12.60;6.30;;;;;;;25.60;42.32;100941.63;109663;1262;22896;-77
2022/06/12 07:47:33;;;;;;;6.60;5.30;;;;;;;25.63;42.40;100944.48;110045;1262;22007;-78
2022/06/12 07:50:07;;;;;;;7.90;5.00;;;;;;;25.72;42.74;100943.98;109905;1262;23575;-77
2022/06/12 07:52:40;;;;;;;7.30;6.30;;;;;;;26.05;43.36;100946.09;110209;1256;21957;-77
2022/06/12 07:55:16;;;;;;;10.20;6.30;;;;;;;26.41;42.14;100945.70;110631;1253;22261;-77
2022/06/12 07:57:46;;;;;;;8.10;5.60;;;;;;;26.64;40.85;100946.98;110550;1256;22171;-77
2022/06/12 08:00:19;;;;;;;7.20;6.10;;;;;;;26.83;40.50;100948.61;110068;1261;21963;-77
2022/06/12 08:02:48;;;;;;;8.10;7.30;;;;;;;26.99;40.32;100945.73;110398;1254;22602;-77
2022/06/12 08:05:20;;;;;;;10.40;7.40;;;;;;;27.07;40.08;100950.94;110366;1256;22700;-76
2022/06/12 08:07:52;;;;;;;10.60;6.90;;;;;;;27.01;39.67;100948.17;110574;1254;23085;-79
2022/06/12 08:10:24;;;;;;;10.70;8.50;;;;;;;26.92;39.68;100946.17;109959;1261;21969;-77
2022/06/12 08:12:56;;;;;;;13.40;7.30;;;;;;;26.77;39.65;100942.83;109327;1263;23140;-77
2022/06/12 08:15:29;;;;;;;8.90;5.70;;;;;;;26.69;40.36;100941.11;109434;1263;21969;-77
2022/06/12 08:18:05;;;;;;;7.50;5.50;;;;;;;26.76;40.72;100937.95;109315;1263;22084;-77
2022/06/12 08:20:45;;;;;;;11.10;5.20;;;;;;;26.94;40.58;100938.77;109400;1263;23862;-77
2022/06/12 08:23:47;;;;;;;6.50;5.50;;;;;;;27.17;40.40;100942.21;109636;1263;21983;-76
2022/06/12 08:26:24;;;;;;;8.90;5.50;;;;;;;27.45;40.64;100942.34;108910;1270;21993;-77
2022/06/12 08:29:08;;;;;;;9.40;5.80;;;;;;;27.87;40.38;100941.55;108967;1267;21966;-77
2022/06/12 08:31:46;;;;;;;9.40;4.60;;;;;;;28.30;39.02;100938.61;109176;1267;21969;-77
2022/06/12 08:34:44;;;;;;;8.40;5.00;;;;;;;28.70;38.84;100931.27;109175;1267;21981;-77
2022/06/12 08:37:35;;;;;;;6.20;4.80;;;;;;;29.26;37.99;100929.05;109248;1267;23693;-76
2022/06/12 08:40:45;;;;;;;5.20;4.40;;;;;;;29.58;35.80;100930.44;109417;1265;23402;-79
2022/06/12 08:43:56;;;;;;;7.10;4.30;;;;;;;29.66;35.79;100924.96;109522;1261;21979;-78
2022/06/12 08:46:59;;;;;;;8.30;5.30;;;;;;;29.85;35.41;100920.05;110070;1260;21945;-80
2022/06/12 08:49:50;;;;;;;6.80;4.70;;;;;;;29.95;35.34;100923.09;110302;1258;22943;-79
2022/06/12 08:52:55;;;;;;;7.50;4.40;;;;;;;30.18;35.18;100921.78;110321;1257;23069;-80
2022/06/12 08:56:08;;;;;;;5.10;4.60;;;;;;;30.42;34.59;100924.14;109851;1259;21980;-80
2022/06/12 08:59:20;;;;;;;7.10;4.50;;;;;;;30.53;34.50;100916.02;110357;1256;21995;-79
2022/06/12 09:02:04;;;;;;;10.50;6.20;;;;;;;30.76;34.48;100917.34;109676;1262;22740;-79
2022/06/12 09:05:06;;;;;;;5.60;3.80;;;;;;;31.05;33.79;100910.95;110092;1260;23562;-80
2022/06/12 09:08:16;;;;;;;7.80;5.00;;;;;;;31.28;33.01;100905.70;110042;1260;22538;-77
2022/06/12 09:11:46;;;;;;;4.30;2.90;;;;;;;31.45;32.89;100907.30;110026;1261;22506;-79
2022/06/12 09:15:04;;;;;;;5.40;3.10;;;;;;;31.68;32.14;100908.56;108969;1270;22029;-79
2022/06/12 09:18:35;;;;;;;5.60;2.80;;;;;;;31.76;31.23;100901.73;109003;1270;24316;-79
2022/06/12 09:21:48;;;;;;;5.20;2.50;;;;;;;31.80;30.80;100894.79;109522;1263;21977;-79
2022/06/12 09:24:55;;;;;;;3.90;2.30;;;;;;;31.73;30.79;100895.05;109091;1267;21991;-78
2022/06/12 09:27:51;;;;;;;7.60;2.30;;;;;;;31.70;30.89;100897.73;108823;1271;23026;-79
2022/06/12 09:30:55;;;;;;;4.50;2.40;;;;;;;31.63;30.04;100892.80;108756;1271;22065;-80
2022/06/12 09:33:29;;;;;;;9.70;2.00;;;;;;;31.70;29.70;100889.96;109064;1267;22755;-78
2022/06/12 09:36:18;;;;;;;5.40;1.80;;;;;;;31.80;28.78;100888.77;109089;1267;23151;-80
2022/06/12 09:39:42;;;;;;;4.10;2.60;;;;;;;31.95;28.98;100883.44;109172;1268;23079;-79
2022/06/12 09:42:22;;;;;;;3.70;2.40;;;;;;;31.95;29.17;100876.88;109009;1268;22033;-78
2022/06/12 09:45:01;;;;;;;2.70;1.70;;;;;;;32.02;29.13;100876.09;109287;1261;21978;-78
2022/06/12 09:48:21;;;;;;;4.80;1.40;;;;;;;32.19;27.99;100873.95;109977;1261;23578;-79
2022/06/12 09:51:59;;;;;;;5.60;2.80;;;;;;;32.24;27.10;100864.89;109841;1262;22761;-78
2022/06/12 09:54:58;;;;;;;4.90;1.90;;;;;;;32.31;27.06;100865.63;109297;1264;22063;-79
2022/06/12 09:57:50;;;;;;;3.10;1.40;;;;;;;32.37;26.61;100862.69;109549;1265;21987;-79
2022/06/12 10:01:19;;;;;;;5.70;2.10;;;;;;;32.28;26.23;100861.21;109398;1265;21967;-77
2022/06/12 10:03:56;;;;;;;;;;;;;;;32.27;26.13;100858.56;109367;1266;22022;-80
2022/06/12 10:06:41;;;;;;;3.50;2.00;;;;;;;32.09;26.20;100855.10;109107;1268;22069;-79
2022/06/12 10:09:20;;;;;;;5.10;1.90;;;;;;;32.04;27.17;100856.55;109068;1270;23633;-79
2022/06/12 10:12:03;;;;;;;4.90;1.90;;;;;;;32.06;27.51;100856.02;109111;1267;23630;-80
2022/06/12 10:14:49;;;;;;;3.80;1.60;;;;;;;32.08;26.70;100855.35;108918;1270;21982;-79
2022/06/12 10:17:30;;;;;;;14.10;3.80;;;;;;;32.07;26.69;100851.31;109128;1268;23699;-77
2022/06/12 10:20:13;;;;;;;6.30;2.00;;;;;;;31.99;26.45;100851.55;109023;1268;22058;-77
2022/06/12 10:22:48;;;;;;;2.80;1.60;;;;;;;31.89;26.41;100848.54;108929;1270;23074;-77
2022/06/12 10:25:27;;;;;;;4.30;1.70;;;;;;;31.86;26.71;100846.90;108898;1270;23004;-77
2022/06/12 10:28:13;;;;;;;5.40;1.70;;;;;;;31.73;25.92;100847.05;108976;1267;22495;-78
2022/06/12 10:30:58;;;;;;;2.90;1.70;;;;;;;31.59;26.10;100843.27;109359;1257;21984;-77
2022/06/12 10:33:42;;;;;;;4.50;1.90;;;;;;;31.49;27.07;100843.65;110297;1258;21980;-78
2022/06/12 10:36:28;;;;;;;3.50;2.00;;;;;;;31.38;27.45;100840.31;110841;1251;22092;-77
2022/06/12 10:39:26;;;;;;;3.50;1.50;;;;;;;31.25;27.57;100837.63;110810;1252;22325;-77
2022/06/12 10:42:01;;;;;;;3.80;2.00;;;;;;;31.13;27.50;100834.85;110433;1257;22428;-77
2022/06/12 10:44:42;;;;;;;5.90;4.40;;;;;;;31.03;27.68;100832.02;110284;1259;25114;-77
2022/06/12 10:47:25;;;;;;;12.50;1.60;;;;;;;30.90;27.20;100831.05;109761;1263;21968;-77
2022/06/12 10:50:22;;;;;;;6.60;1.50;;;;;;;30.72;26.17;100824.33;109594;1263;23832;-77
2022/06/12 10:53:08;;;;;;;4.30;1.50;;;;;;;30.53;25.96;100816.02;109714;1260;22421;-78
2022/06/12 10:56:22;;;;;;;3.00;1.50;;;;;;;30.37;26.97;100814.90;109603;1262;23596;-77
2022/06/12 10:59:32;;;;;;;2.50;1.30;;;;;;;30.18;26.66;100815.19;109664;1262;21978;-77
2022/06/12 11:02:11;;;;;;;3.00;1.40;;;;;;;29.89;26.70;100815.93;109637;1264;21977;-78
2022/06/12 11:05:14;;;;;;;4.10;1.50;;;;;;;29.60;26.84;100811.80;109980;1259;22004;-79
2022/06/12 11:08:10;;;;;;;4.00;1.60;;;;;;;29.32;27.32;100806.52;109816;1262;21970;-77
2022/06/12 11:10:56;;;;;;;6.20;1.70;;;;;;;29.20;28.04;100800.61;109034;1267;22060;-78
2022/06/12 11:13:43;;;;;;;8.60;1.70;;;;;;;29.11;28.28;100800.05;109176;1267;22027;-78
2022/06/12 11:16:43;;;;;;;4.70;1.50;;;;;;;29.05;28.24;100802.00;109173;1267;22280;-77
2022/06/12 11:19:35;;;;;;;2.70;1.20;;;;;;;29.00;28.71;100801.75;109585;1259;23678;-78
2022/06/12 11:22:32;;;;;;;4.10;1.30;;;;;;;28.94;28.50;100802.02;110148;1260;23065;-77
2022/06/12 11:25:52;;;;;;;3.60;1.70;;;;;;;28.93;28.50;100792.14;109914;1260;23127;-79
2022/06/12 11:28:45;;;;;;;10.20;1.90;;;;;;;28.92;28.73;100794.65;109632;1263;23017;-78
2022/06/12 11:31:35;;;;;;;4.60;1.90;;;;;;;28.90;28.78;100791.94;109454;1261;22082;-77
2022/06/12 11:34:28;;;;;;;4.00;1.70;;;;;;;28.91;28.45;100791.50;109748;1262;21970;-78
2022/06/12 11:37:07;;;;;;;4.20;2.10;;;;;;;28.84;28.05;100794.41;109401;1264;22078;-79
2022/06/12 11:40:18;;;;;;;5.10;1.60;;;;;;;28.80;28.63;100789.64;109768;1262;21991;-79
2022/06/12 11:43:33;;;;;;;2.90;1.70;;;;;;;28.78;28.48;100789.54;108711;1271;23636;-78
2022/06/12 11:46:34;;;;;;;3.00;1.90;;;;;;;28.74;28.48;100784.45;108454;1277;22356;-77
2022/06/12 11:50:00;;;;;;;2.50;1.20;;;;;;;28.76;28.65;100784.45;108439;1277;21998;-78
2022/06/12 11:53:10;;;;;;;3.40;1.30;;;;;;;28.75;28.71;100778.86;108582;1273;23693;-78
2022/06/12 11:55:52;;;;;;;4.30;1.70;;;;;;;28.77;28.83;100774.86;108660;1273;21991;-78
2022/06/12 11:58:26;;;;;;;5.10;1.60;;;;;;;28.80;28.88;100772.18;108636;1274;23484;-77
2022/06/12 12:01:25;;;;;;;3.30;1.90;;;;;;;28.86;29.25;100764.92;108853;1268;22880;-78
2022/06/12 12:04:10;;;;;;;4.40;1.50;;;;;;;28.93;29.09;100758.58;109774;1265;23070;-77
2022/06/12 12:07:09;;;;;;;4.20;1.50;;;;;;;28.94;28.92;100754.05;109623;1264;22039;-77
2022/06/12 12:10:30;;;;;;;3.10;1.50;;;;;;;28.93;29.01;100749.71;109611;1262;23498;-76
2022/06/12 12:13:42;;;;;;;5.90;1.60;;;;;;;28.92;29.14;100746.40;109642;1264;21987;-77
2022/06/12 12:16:58;;;;;;;6.10;1.60;;;;;;;28.90;29.01;100737.11;109517;1265;21973;-77
2022/06/12 12:19:32;;;;;;;5.70;1.50;;;;;;;28.85;28.65;100733.77;109895;1257;22128;-78
2022/06/12 12:22:32;;;;;;;10.70;1.60;;;;;;;28.85;29.00;100727.09;109781;1261;21985;-76
2022/06/12 12:25:08;;;;;;;3.50;1.90;;;;;;;28.87;28.93;100725.02;110277;1258;21985;-78
2022/06/12 12:27:47;;;;;;;11.40;10.30;;;;;;;28.90;28.95;100723.89;109635;1261;23061;-77
2022/06/12 12:30:24;;;;;;;7.80;3.40;;;;;;;28.95;28.83;100722.51;109175;1267;22048;-77
2022/06/12 12:32:58;;;;;;;4.20;1.60;;;;;;;28.97;28.27;100725.39;109439;1264;22999;-78
2022/06/12 12:41:49;;;;;;;6.30;5.70;;;;;;;29.06;28.58;100715.98;109185;1267;22986;-77
2022/06/12 12:44:39;;;;;;;3.80;3.50;;;;;;;29.18;28.30;100712.65;109125;1267;22413;-77
2022/06/12 12:47:28;;;;;;;5.50;1.70;;;;;;;29.27;28.13;100710.78;109100;1267;22868;-77
2022/06/12 12:50:14;;;;;;;5.20;3.80;;;;;;;29.32;28.43;100710.64;109111;1265;23052;-81
2022/06/12 12:52:56;;;;;;;5.20;3.50;;;;;;;29.41;28.24;100708.27;109206;1263;22014;-79
2022/06/12 12:55:41;;;;;;;3.70;2.70;;;;;;;29.49;27.72;100704.56;109218;1265;22433;-78
2022/06/12 12:58:26;;;;;;;3.10;1.40;;;;;;;29.58;27.45;100703.79;109872;1259;24137;-80
2022/06/12 13:01:19;;;;;;;3.80;1.50;;;;;;;29.62;27.61;100706.48;109659;1261;21968;-78
2022/06/12 13:04:13;;;;;;;2.30;1.40;;;;;;;29.62;27.61;100699.26;110062;1260;21978;-77
2022/06/12 13:07:43;;;;;;;3.60;2.50;;;;;;;29.62;27.74;100700.17;109958;1260;23687;-79
2022/06/12 13:11:07;;;;;;;2.40;1.40;;;;;;;29.46;27.35;100695.66;109315;1264;23685;-78
2022/06/12 13:14:03;;;;;;;5.50;2.00;;;;;;;29.30;27.85;100691.82;109103;1268;24076;-76
2022/06/12 13:16:52;;;;;;;3.20;1.60;;;;;;;29.28;28.01;100690.32;109221;1267;21990;-77
2022/06/12 13:20:14;;;;;;;2.40;1.20;;;;;;;29.27;27.78;100689.30;109335;1267;23633;-77
2022/06/12 13:22:53;;;;;;;2.90;1.10;;;;;;;29.18;27.51;100688.76;109426;1267;23011;-77
2022/06/12 13:25:54;;;;;;;2.20;1.40;;;;;;;29.11;27.82;100686.91;109775;1262;21988;-77
2022/06/12 13:28:34;;;;;;;3.00;2.00;;;;;;;29.05;27.78;100691.09;109740;1261;22008;-78
2022/06/12 13:31:04;;;;;;;2.80;1.50;;;;;;;28.99;27.86;100694.60;109738;1260;21988;-78
2022/06/12 13:33:35;;;;;;;4.60;1.60;;;;;;;28.92;27.99;100689.08;110325;1257;22823;-77
2022/06/12 13:36:14;;;;;;;5.40;1.70;;;;;;;28.85;27.97;100685.60;110340;1259;22123;-79
2022/06/12 13:38:45;;;;;;;2.90;1.20;;;;;;;28.71;28.08;100688.66;110171;1259;21965;-78
2022/06/12 13:41:40;;;;;;;3.40;1.10;;;;;;;28.56;28.50;100686.95;110307;1257;23713;-78
2022/06/12 13:44:34;;;;;;;2.80;1.40;;;;;;;28.45;28.70;100686.83;110320;1257;21986;-78
2022/06/12 13:47:36;;;;;;;7.00;1.40;;;;;;;28.35;28.63;100682.89;110654;1250;22727;-78
2022/06/12 13:50:45;;;;;;;2.20;1.30;;;;;;;28.25;28.56;100680.97;110789;1251;22060;-77
2022/06/12 13:53:21;;;;;;;3.50;1.30;;;;;;;28.24;28.77;100677.51;110623;1253;21956;-78
2022/06/12 13:56:01;;;;;;;1.80;1.00;;;;;;;28.23;29.10;100671.74;110360;1257;21979;-77
2022/06/12 13:58:37;;;;;;;3.70;1.50;;;;;;;28.20;28.86;100667.09;109726;1263;22089;-78
2022/06/12 14:01:26;;;;;;;3.20;1.50;;;;;;;28.17;29.16;100666.66;109991;1261;21961;-77